sensor_id;sensor_type;location;lat;lon;timestamp;P1;durP1;ratioP1;P2;durP2;ratioP2
40471;SDS011;26174;42.908;23.800;2022-08-19T00:00:25;8.68;;;5.72;;
40471;SDS011;26174;42.908;23.800;2022-08-19T00:02:52;7.97;;;5.70;;
40471;SDS011;26174;42.908;23.800;2022-08-19T00:05:18;10.57;;;7.22;;
40471;SDS011;26174;42.908;23.800;2022-08-19T00:07:46;8.68;;;6.10;;
40471;SDS011;26174;42.908;23.800;2022-08-19T00:10:12;10.23;;;5.75;;
40471;SDS011;26174;42.908;23.800;2022-08-19T00:12:39;7.50;;;5.60;;
40471;SDS011;26174;42.908;23.800;2022-08-19T00:15:06;9.35;;;6.53;;
40471;SDS011;26174;42.908;23.800;2022-08-19T00:17:37;11.43;;;6.55;;
40471;SDS011;26174;42.908;23.800;2022-08-19T00:20:04;7.50;;;5.57;;
40471;SDS011;26174;42.908;23.800;2022-08-19T00:22:31;9.35;;;6.47;;
40471;SDS011;26174;42.908;23.800;2022-08-19T00:24:58;11.20;;;5.93;;
40471;SDS011;26174;42.908;23.800;2022-08-19T00:27:23;12.45;;;6.10;;
40471;SDS011;26174;42.908;23.800;2022-08-19T00:29:49;8.18;;;5.78;;
40471;SDS011;26174;42.908;23.800;2022-08-19T00:32:16;8.18;;;5.85;;
40471;SDS011;26174;42.908;23.800;2022-08-19T00:34:42;8.43;;;5.60;;
40471;SDS011;26174;42.908;23.800;2022-08-19T00:37:08;7.53;;;5.60;;
40471;SDS011;26174;42.908;23.800;2022-08-19T00:39:34;7.05;;;5.18;;
40471;SDS011;26174;42.908;23.800;2022-08-19T00:41:59;11.23;;;5.97;;
40471;SDS011;26174;42.908;23.800;2022-08-19T00:44:26;14.85;;;6.10;;
40471;SDS011;26174;42.908;23.800;2022-08-19T00:46:55;10.00;;;6.45;;
40471;SDS011;26174;42.908;23.800;2022-08-19T00:49:31;10.57;;;6.53;;
40471;SDS011;26174;42.908;23.800;2022-08-19T00:52:06;8.80;;;6.30;;
40471;SDS011;26174;42.908;23.800;2022-08-19T00:54:33;11.15;;;6.22;;
40471;SDS011;26174;42.908;23.800;2022-08-19T00:57:02;12.27;;;5.95;;
40471;SDS011;26174;42.908;23.800;2022-08-19T00:59:31;7.55;;;5.68;;
40471;SDS011;26174;42.908;23.800;2022-08-19T01:01:59;9.40;;;5.50;;
40471;SDS011;26174;42.908;23.800;2022-08-19T01:04:25;10.95;;;5.93;;
40471;SDS011;26174;42.908;23.800;2022-08-19T01:06:50;8.68;;;5.80;;
40471;SDS011;26174;42.908;23.800;2022-08-19T01:09:16;7.60;;;5.80;;
40471;SDS011;26174;42.908;23.800;2022-08-19T01:11:41;10.68;;;6.20;;
40471;SDS011;26174;42.908;23.800;2022-08-19T01:14:09;14.00;;;6.40;;
40471;SDS011;26174;42.908;23.800;2022-08-19T01:16:35;11.57;;;5.72;;
40471;SDS011;26174;42.908;23.800;2022-08-19T01:19:02;9.68;;;6.25;;
40471;SDS011;26174;42.908;23.800;2022-08-19T01:21:32;8.82;;;6.22;;
40471;SDS011;26174;42.908;23.800;2022-08-19T01:24:00;10.30;;;6.00;;
40471;SDS011;26174;42.908;23.800;2022-08-19T01:26:26;12.50;;;6.40;;
40471;SDS011;26174;42.908;23.800;2022-08-19T01:28:54;8.80;;;5.85;;
40471;SDS011;26174;42.908;23.800;2022-08-19T01:31:22;10.23;;;5.78;;
40471;SDS011;26174;42.908;23.800;2022-08-19T01:33:50;7.72;;;6.03;;
40471;SDS011;26174;42.908;23.800;2022-08-19T01:36:28;8.20;;;6.10;;
40471;SDS011;26174;42.908;23.800;2022-08-19T01:38:56;7.78;;;5.78;;
40471;SDS011;26174;42.908;23.800;2022-08-19T01:41:23;12.20;;;6.68;;
40471;SDS011;26174;42.908;23.800;2022-08-19T01:43:49;12.38;;;6.35;;
40471;SDS011;26174;42.908;23.800;2022-08-19T01:46:16;9.30;;;6.40;;
40471;SDS011;26174;42.908;23.800;2022-08-19T01:48:42;8.20;;;6.07;;
40471;SDS011;26174;42.908;23.800;2022-08-19T01:51:08;9.30;;;6.13;;
40471;SDS011;26174;42.908;23.800;2022-08-19T01:53:35;9.55;;;6.32;;
40471;SDS011;26174;42.908;23.800;2022-08-19T01:56:01;11.32;;;6.70;;
40471;SDS011;26174;42.908;23.800;2022-08-19T01:58:28;10.73;;;7.00;;
40471;SDS011;26174;42.908;23.800;2022-08-19T02:00:58;9.40;;;5.70;;
40471;SDS011;26174;42.908;23.800;2022-08-19T02:03:23;9.80;;;6.13;;
40471;SDS011;26174;42.908;23.800;2022-08-19T02:05:53;8.30;;;6.10;;
40471;SDS011;26174;42.908;23.800;2022-08-19T02:08:21;9.90;;;6.57;;
40471;SDS011;26174;42.908;23.800;2022-08-19T02:10:47;7.90;;;6.30;;
40471;SDS011;26174;42.908;23.800;2022-08-19T02:13:13;9.30;;;6.45;;
40471;SDS011;26174;42.908;23.800;2022-08-19T02:15:39;8.48;;;6.20;;
40471;SDS011;26174;42.908;23.800;2022-08-19T02:18:05;9.82;;;6.30;;
40471;SDS011;26174;42.908;23.800;2022-08-19T02:20:32;9.93;;;5.85;;
40471;SDS011;26174;42.908;23.800;2022-08-19T02:22:57;11.30;;;6.63;;
40471;SDS011;26174;42.908;23.800;2022-08-19T02:25:23;9.10;;;6.45;;
40471;SDS011;26174;42.908;23.800;2022-08-19T02:27:49;12.45;;;6.78;;
40471;SDS011;26174;42.908;23.800;2022-08-19T02:30:15;9.63;;;6.53;;
40471;SDS011;26174;42.908;23.800;2022-08-19T02:32:41;8.82;;;6.13;;
40471;SDS011;26174;42.908;23.800;2022-08-19T02:35:07;8.32;;;5.80;;
40471;SDS011;26174;42.908;23.800;2022-08-19T02:37:33;8.48;;;6.43;;
40471;SDS011;26174;42.908;23.800;2022-08-19T02:40:18;15.07;;;5.93;;
40471;SDS011;26174;42.908;23.800;2022-08-19T02:42:44;8.82;;;6.43;;
40471;SDS011;26174;42.908;23.800;2022-08-19T02:45:11;9.57;;;6.97;;
40471;SDS011;26174;42.908;23.800;2022-08-19T02:47:38;11.98;;;6.20;;
40471;SDS011;26174;42.908;23.800;2022-08-19T02:50:04;13.35;;;6.30;;
40471;SDS011;26174;42.908;23.800;2022-08-19T02:52:31;10.88;;;7.30;;
40471;SDS011;26174;42.908;23.800;2022-08-19T02:54:58;25.77;;;13.75;;
40471;SDS011;26174;42.908;23.800;2022-08-19T02:57:25;18.52;;;10.82;;
40471;SDS011;26174;42.908;23.800;2022-08-19T02:59:51;16.33;;;10.05;;
40471;SDS011;26174;42.908;23.800;2022-08-19T03:02:17;16.25;;;9.82;;
40471;SDS011;26174;42.908;23.800;2022-08-19T03:04:43;11.30;;;7.75;;
40471;SDS011;26174;42.908;23.800;2022-08-19T03:07:09;10.32;;;7.40;;
40471;SDS011;26174;42.908;23.800;2022-08-19T03:09:37;9.30;;;6.82;;
40471;SDS011;26174;42.908;23.800;2022-08-19T03:12:06;11.48;;;7.45;;
40471;SDS011;26174;42.908;23.800;2022-08-19T03:14:32;10.82;;;6.90;;
40471;SDS011;26174;42.908;23.800;2022-08-19T03:16:58;10.13;;;7.18;;
40471;SDS011;26174;42.908;23.800;2022-08-19T03:19:24;12.73;;;7.22;;
40471;SDS011;26174;42.908;23.800;2022-08-19T03:21:50;12.02;;;7.75;;
40471;SDS011;26174;42.908;23.800;2022-08-19T03:24:17;12.75;;;7.22;;
40471;SDS011;26174;42.908;23.800;2022-08-19T03:26:53;11.05;;;7.03;;
40471;SDS011;26174;42.908;23.800;2022-08-19T03:29:24;11.10;;;7.65;;
40471;SDS011;26174;42.908;23.800;2022-08-19T03:31:52;12.15;;;7.28;;
40471;SDS011;26174;42.908;23.800;2022-08-19T03:34:19;16.38;;;7.07;;
40471;SDS011;26174;42.908;23.800;2022-08-19T03:36:46;14.55;;;7.80;;
40471;SDS011;26174;42.908;23.800;2022-08-19T03:39:13;16.25;;;9.65;;
40471;SDS011;26174;42.908;23.800;2022-08-19T03:41:40;16.50;;;7.53;;
40471;SDS011;26174;42.908;23.800;2022-08-19T03:44:07;18.38;;;10.13;;
40471;SDS011;26174;42.908;23.800;2022-08-19T03:46:33;11.32;;;7.30;;
40471;SDS011;26174;42.908;23.800;2022-08-19T03:49:02;9.48;;;6.47;;
40471;SDS011;26174;42.908;23.800;2022-08-19T03:51:34;13.65;;;6.70;;
40471;SDS011;26174;42.908;23.800;2022-08-19T03:54:02;11.00;;;6.60;;
40471;SDS011;26174;42.908;23.800;2022-08-19T03:56:29;11.07;;;6.85;;
40471;SDS011;26174;42.908;23.800;2022-08-19T03:58:55;8.93;;;6.47;;
40471;SDS011;26174;42.908;23.800;2022-08-19T04:01:24;8.60;;;6.53;;
40471;SDS011;26174;42.908;23.800;2022-08-19T04:03:52;12.02;;;6.88;;
40471;SDS011;26174;42.908;23.800;2022-08-19T04:06:19;14.05;;;7.25;;
40471;SDS011;26174;42.908;23.800;2022-08-19T04:08:46;9.57;;;6.65;;
40471;SDS011;26174;42.908;23.800;2022-08-19T04:11:16;17.70;;;7.07;;
40471;SDS011;26174;42.908;23.800;2022-08-19T04:13:48;14.43;;;8.13;;
40471;SDS011;26174;42.908;23.800;2022-08-19T04:16:16;13.60;;;7.43;;
40471;SDS011;26174;42.908;23.800;2022-08-19T04:18:45;14.05;;;7.45;;
40471;SDS011;26174;42.908;23.800;2022-08-19T04:21:16;15.75;;;8.15;;
40471;SDS011;26174;42.908;23.800;2022-08-19T04:23:44;16.50;;;9.27;;
40471;SDS011;26174;42.908;23.800;2022-08-19T04:26:13;14.25;;;9.30;;
40471;SDS011;26174;42.908;23.800;2022-08-19T04:28:40;15.40;;;9.07;;
40471;SDS011;26174;42.908;23.800;2022-08-19T04:31:11;16.38;;;10.43;;
40471;SDS011;26174;42.908;23.800;2022-08-19T04:33:38;16.55;;;9.57;;
40471;SDS011;26174;42.908;23.800;2022-08-19T04:36:04;15.23;;;9.23;;
40471;SDS011;26174;42.908;23.800;2022-08-19T04:38:29;21.98;;;11.18;;
40471;SDS011;26174;42.908;23.800;2022-08-19T04:40:55;17.70;;;9.90;;
40471;SDS011;26174;42.908;23.800;2022-08-19T04:43:39;18.30;;;9.85;;
40471;SDS011;26174;42.908;23.800;2022-08-19T04:46:09;15.30;;;9.45;;
40471;SDS011;26174;42.908;23.800;2022-08-19T04:48:36;15.00;;;9.75;;
40471;SDS011;26174;42.908;23.800;2022-08-19T04:51:05;21.00;;;9.60;;
40471;SDS011;26174;42.908;23.800;2022-08-19T04:53:32;19.80;;;9.40;;
40471;SDS011;26174;42.908;23.800;2022-08-19T04:56:04;13.77;;;8.90;;
40471;SDS011;26174;42.908;23.800;2022-08-19T04:58:34;12.35;;;8.27;;
40471;SDS011;26174;42.908;23.800;2022-08-19T05:01:00;16.55;;;8.68;;
40471;SDS011;26174;42.908;23.800;2022-08-19T05:03:26;15.32;;;9.48;;
40471;SDS011;26174;42.908;23.800;2022-08-19T05:05:52;12.00;;;8.13;;
40471;SDS011;26174;42.908;23.800;2022-08-19T05:08:19;13.88;;;8.27;;
40471;SDS011;26174;42.908;23.800;2022-08-19T05:10:49;11.85;;;8.10;;
40471;SDS011;26174;42.908;23.800;2022-08-19T05:13:16;13.18;;;7.82;;
40471;SDS011;26174;42.908;23.800;2022-08-19T05:15:43;11.93;;;8.15;;
40471;SDS011;26174;42.908;23.800;2022-08-19T05:18:10;12.70;;;7.30;;
40471;SDS011;26174;42.908;23.800;2022-08-19T05:20:54;14.75;;;7.38;;
40471;SDS011;26174;42.908;23.800;2022-08-19T05:23:38;10.57;;;7.25;;
40471;SDS011;26174;42.908;23.800;2022-08-19T05:26:04;14.52;;;8.55;;
40471;SDS011;26174;42.908;23.800;2022-08-19T05:28:30;17.27;;;7.60;;
40471;SDS011;26174;42.908;23.800;2022-08-19T05:30:55;13.18;;;7.20;;
40471;SDS011;26174;42.908;23.800;2022-08-19T05:33:21;15.20;;;9.48;;
40471;SDS011;26174;42.908;23.800;2022-08-19T05:35:48;12.73;;;7.70;;
40471;SDS011;26174;42.908;23.800;2022-08-19T05:38:15;20.13;;;11.55;;
40471;SDS011;26174;42.908;23.800;2022-08-19T05:40:44;15.88;;;8.90;;
40471;SDS011;26174;42.908;23.800;2022-08-19T05:43:13;32.80;;;16.58;;
40471;SDS011;26174;42.908;23.800;2022-08-19T05:45:42;15.18;;;9.50;;
40471;SDS011;26174;42.908;23.800;2022-08-19T05:48:09;8.82;;;5.70;;
40471;SDS011;26174;42.908;23.800;2022-08-19T05:50:36;13.57;;;6.68;;
40471;SDS011;26174;42.908;23.800;2022-08-19T05:53:03;8.75;;;5.80;;
40471;SDS011;26174;42.908;23.800;2022-08-19T05:55:29;8.32;;;4.97;;
40471;SDS011;26174;42.908;23.800;2022-08-19T05:57:55;12.00;;;8.13;;
40471;SDS011;26174;42.908;23.800;2022-08-19T06:00:20;11.38;;;6.30;;
40471;SDS011;26174;42.908;23.800;2022-08-19T06:02:46;12.65;;;6.55;;
40471;SDS011;26174;42.908;23.800;2022-08-19T06:05:11;8.60;;;5.50;;
40471;SDS011;26174;42.908;23.800;2022-08-19T06:07:38;8.02;;;5.75;;
40471;SDS011;26174;42.908;23.800;2022-08-19T06:10:06;6.90;;;5.57;;
40471;SDS011;26174;42.908;23.800;2022-08-19T06:12:33;6.55;;;5.25;;
40471;SDS011;26174;42.908;23.800;2022-08-19T06:15:01;6.93;;;4.85;;
40471;SDS011;26174;42.908;23.800;2022-08-19T06:17:29;8.77;;;5.68;;
40471;SDS011;26174;42.908;23.800;2022-08-19T06:19:55;9.75;;;5.75;;
40471;SDS011;26174;42.908;23.800;2022-08-19T06:22:21;8.85;;;5.68;;
40471;SDS011;26174;42.908;23.800;2022-08-19T06:24:47;8.63;;;5.88;;
40471;SDS011;26174;42.908;23.800;2022-08-19T06:27:13;7.07;;;5.32;;
40471;SDS011;26174;42.908;23.800;2022-08-19T06:29:38;7.63;;;5.53;;
40471;SDS011;26174;42.908;23.800;2022-08-19T06:32:04;5.70;;;4.32;;
40471;SDS011;26174;42.908;23.800;2022-08-19T06:34:31;9.02;;;4.85;;
40471;SDS011;26174;42.908;23.800;2022-08-19T06:36:59;7.40;;;4.50;;
40471;SDS011;26174;42.908;23.800;2022-08-19T06:39:32;10.65;;;5.05;;
40471;SDS011;26174;42.908;23.800;2022-08-19T06:42:03;8.45;;;4.60;;
40471;SDS011;26174;42.908;23.800;2022-08-19T06:44:32;5.90;;;4.68;;
40471;SDS011;26174;42.908;23.800;2022-08-19T06:47:00;6.60;;;5.40;;
40471;SDS011;26174;42.908;23.800;2022-08-19T06:49:27;7.60;;;4.72;;
40471;SDS011;26174;42.908;23.800;2022-08-19T06:51:56;8.75;;;4.63;;
40471;SDS011;26174;42.908;23.800;2022-08-19T06:54:22;6.00;;;4.82;;
40471;SDS011;26174;42.908;23.800;2022-08-19T06:56:48;7.00;;;4.85;;
40471;SDS011;26174;42.908;23.800;2022-08-19T06:59:15;13.48;;;5.53;;
40471;SDS011;26174;42.908;23.800;2022-08-19T07:01:48;7.85;;;4.78;;
40471;SDS011;26174;42.908;23.800;2022-08-19T07:04:17;7.82;;;4.60;;
40471;SDS011;26174;42.908;23.800;2022-08-19T07:06:44;7.63;;;5.53;;
40471;SDS011;26174;42.908;23.800;2022-08-19T07:09:14;6.45;;;5.28;;
40471;SDS011;26174;42.908;23.800;2022-08-19T07:11:45;9.45;;;4.72;;
40471;SDS011;26174;42.908;23.800;2022-08-19T07:14:12;5.60;;;4.85;;
40471;SDS011;26174;42.908;23.800;2022-08-19T07:16:39;5.97;;;4.72;;
40471;SDS011;26174;42.908;23.800;2022-08-19T07:19:05;7.28;;;4.57;;
40471;SDS011;26174;42.908;23.800;2022-08-19T07:21:31;6.32;;;4.90;;
40471;SDS011;26174;42.908;23.800;2022-08-19T07:23:58;8.55;;;4.70;;
40471;SDS011;26174;42.908;23.800;2022-08-19T07:26:26;7.10;;;4.65;;
40471;SDS011;26174;42.908;23.800;2022-08-19T07:28:54;8.90;;;4.90;;
40471;SDS011;26174;42.908;23.800;2022-08-19T07:31:21;5.97;;;5.15;;
40471;SDS011;26174;42.908;23.800;2022-08-19T07:33:48;6.57;;;5.10;;
40471;SDS011;26174;42.908;23.800;2022-08-19T07:36:15;12.35;;;4.45;;
40471;SDS011;26174;42.908;23.800;2022-08-19T07:38:43;5.35;;;4.53;;
40471;SDS011;26174;42.908;23.800;2022-08-19T07:41:13;5.45;;;4.80;;
40471;SDS011;26174;42.908;23.800;2022-08-19T07:43:40;7.03;;;4.75;;
40471;SDS011;26174;42.908;23.800;2022-08-19T07:46:08;5.80;;;4.47;;
40471;SDS011;26174;42.908;23.800;2022-08-19T07:48:34;11.88;;;5.20;;
40471;SDS011;26174;42.908;23.800;2022-08-19T07:51:01;4.68;;;4.18;;
40471;SDS011;26174;42.908;23.800;2022-08-19T07:53:32;6.05;;;4.57;;
40471;SDS011;26174;42.908;23.800;2022-08-19T07:55:58;9.98;;;4.70;;
40471;SDS011;26174;42.908;23.800;2022-08-19T07:58:29;10.50;;;5.23;;
40471;SDS011;26174;42.908;23.800;2022-08-19T08:00:59;4.95;;;4.20;;
40471;SDS011;26174;42.908;23.800;2022-08-19T08:03:25;6.53;;;4.50;;
40471;SDS011;26174;42.908;23.800;2022-08-19T08:06:10;4.57;;;4.13;;
40471;SDS011;26174;42.908;23.800;2022-08-19T08:08:55;6.05;;;4.22;;
40471;SDS011;26174;42.908;23.800;2022-08-19T08:11:43;4.80;;;4.05;;
40471;SDS011;26174;42.908;23.800;2022-08-19T08:14:14;6.22;;;4.60;;
40471;SDS011;26174;42.908;23.800;2022-08-19T08:16:41;6.47;;;4.00;;
40471;SDS011;26174;42.908;23.800;2022-08-19T08:19:09;5.30;;;4.45;;
40471;SDS011;26174;42.908;23.800;2022-08-19T08:21:35;7.78;;;4.60;;
40471;SDS011;26174;42.908;23.800;2022-08-19T08:24:00;6.13;;;4.53;;
40471;SDS011;26174;42.908;23.800;2022-08-19T08:26:26;4.40;;;3.85;;
40471;SDS011;26174;42.908;23.800;2022-08-19T08:28:52;5.22;;;3.80;;
40471;SDS011;26174;42.908;23.800;2022-08-19T08:31:18;7.13;;;4.45;;
40471;SDS011;26174;42.908;23.800;2022-08-19T08:33:44;4.25;;;3.85;;
40471;SDS011;26174;42.908;23.800;2022-08-19T08:36:10;6.25;;;3.83;;
40471;SDS011;26174;42.908;23.800;2022-08-19T08:38:38;6.53;;;3.90;;
40471;SDS011;26174;42.908;23.800;2022-08-19T08:41:08;6.15;;;3.70;;
40471;SDS011;26174;42.908;23.800;2022-08-19T08:43:48;4.93;;;3.75;;
40471;SDS011;26174;42.908;23.800;2022-08-19T08:47:00;4.30;;;3.90;;
40471;SDS011;26174;42.908;23.800;2022-08-19T08:54:55;3.95;;;3.60;;
40471;SDS011;26174;42.908;23.800;2022-08-19T09:00:12;6.32;;;4.05;;
40471;SDS011;26174;42.908;23.800;2022-08-19T09:02:45;4.75;;;4.10;;
40471;SDS011;26174;42.908;23.800;2022-08-19T09:05:11;5.40;;;3.97;;
40471;SDS011;26174;42.908;23.800;2022-08-19T09:15:31;5.70;;;3.97;;
40471;SDS011;26174;42.908;23.800;2022-08-19T09:18:00;4.40;;;4.00;;
40471;SDS011;26174;42.908;23.800;2022-08-19T09:20:27;4.68;;;3.25;;
40471;SDS011;26174;42.908;23.800;2022-08-19T09:22:52;4.63;;;4.22;;
40471;SDS011;26174;42.908;23.800;2022-08-19T09:25:19;5.00;;;3.67;;
40471;SDS011;26174;42.908;23.800;2022-08-19T09:27:49;12.90;;;4.10;;
40471;SDS011;26174;42.908;23.800;2022-08-19T09:30:17;4.15;;;3.67;;
40471;SDS011;26174;42.908;23.800;2022-08-19T09:32:49;5.22;;;4.43;;
40471;SDS011;26174;42.908;23.800;2022-08-19T09:35:17;8.07;;;4.22;;
40471;SDS011;26174;42.908;23.800;2022-08-19T09:37:43;5.07;;;3.92;;
40471;SDS011;26174;42.908;23.800;2022-08-19T09:40:09;5.88;;;3.60;;
40471;SDS011;26174;42.908;23.800;2022-08-19T09:42:36;5.22;;;3.60;;
40471;SDS011;26174;42.908;23.800;2022-08-19T09:45:02;4.82;;;3.70;;
40471;SDS011;26174;42.908;23.800;2022-08-19T09:47:29;5.72;;;4.50;;
40471;SDS011;26174;42.908;23.800;2022-08-19T09:49:55;4.50;;;3.92;;
40471;SDS011;26174;42.908;23.800;2022-08-19T09:52:21;4.97;;;3.75;;
40471;SDS011;26174;42.908;23.800;2022-08-19T09:54:46;10.43;;;5.53;;
40471;SDS011;26174;42.908;23.800;2022-08-19T09:57:12;4.93;;;3.80;;
40471;SDS011;26174;42.908;23.800;2022-08-19T09:59:38;4.53;;;3.47;;
40471;SDS011;26174;42.908;23.800;2022-08-19T10:02:05;3.65;;;3.25;;
40471;SDS011;26174;42.908;23.800;2022-08-19T10:04:30;4.15;;;2.95;;
40471;SDS011;26174;42.908;23.800;2022-08-19T10:07:14;4.13;;;3.50;;
40471;SDS011;26174;42.908;23.800;2022-08-19T10:09:40;3.20;;;2.90;;
40471;SDS011;26174;42.908;23.800;2022-08-19T10:12:06;3.47;;;3.17;;
40471;SDS011;26174;42.908;23.800;2022-08-19T10:14:33;3.28;;;2.97;;
40471;SDS011;26174;42.908;23.800;2022-08-19T10:16:58;4.15;;;3.17;;
40471;SDS011;26174;42.908;23.800;2022-08-19T10:19:25;5.03;;;3.17;;
40471;SDS011;26174;42.908;23.800;2022-08-19T10:21:53;3.83;;;3.22;;
40471;SDS011;26174;42.908;23.800;2022-08-19T10:24:19;3.53;;;2.90;;
40471;SDS011;26174;42.908;23.800;2022-08-19T10:26:45;5.13;;;3.35;;
40471;SDS011;26174;42.908;23.800;2022-08-19T10:29:12;4.20;;;3.08;;
40471;SDS011;26174;42.908;23.800;2022-08-19T10:31:41;7.95;;;3.45;;
40471;SDS011;26174;42.908;23.800;2022-08-19T10:34:07;3.80;;;3.17;;
40471;SDS011;26174;42.908;23.800;2022-08-19T10:36:35;3.63;;;3.33;;
40471;SDS011;26174;42.908;23.800;2022-08-19T10:39:10;3.50;;;3.20;;
40471;SDS011;26174;42.908;23.800;2022-08-19T10:41:38;4.97;;;3.67;;
40471;SDS011;26174;42.908;23.800;2022-08-19T10:44:06;6.55;;;3.70;;
40471;SDS011;26174;42.908;23.800;2022-08-19T10:46:34;5.55;;;3.60;;
40471;SDS011;26174;42.908;23.800;2022-08-19T10:49:02;5.50;;;3.97;;
40471;SDS011;26174;42.908;23.800;2022-08-19T10:51:30;3.55;;;3.22;;
40471;SDS011;26174;42.908;23.800;2022-08-19T10:54:14;5.05;;;3.53;;
40471;SDS011;26174;42.908;23.800;2022-08-19T10:56:40;6.68;;;3.72;;
40471;SDS011;26174;42.908;23.800;2022-08-19T11:01:48;5.40;;;3.83;;
40471;SDS011;26174;42.908;23.800;2022-08-19T11:04:15;5.15;;;3.60;;
40471;SDS011;26174;42.908;23.800;2022-08-19T11:06:46;8.43;;;3.90;;
40471;SDS011;26174;42.908;23.800;2022-08-19T11:09:16;6.70;;;3.67;;
40471;SDS011;26174;42.908;23.800;2022-08-19T11:11:43;5.07;;;4.07;;
40471;SDS011;26174;42.908;23.800;2022-08-19T11:14:13;7.60;;;4.07;;
40471;SDS011;26174;42.908;23.800;2022-08-19T11:16:40;4.55;;;3.60;;
40471;SDS011;26174;42.908;23.800;2022-08-19T11:19:08;4.32;;;3.83;;
40471;SDS011;26174;42.908;23.800;2022-08-19T11:21:38;4.60;;;4.10;;
40471;SDS011;26174;42.908;23.800;2022-08-19T11:26:32;3.72;;;3.33;;
40471;SDS011;26174;42.908;23.800;2022-08-19T11:28:59;5.43;;;3.75;;
40471;SDS011;26174;42.908;23.800;2022-08-19T11:31:25;4.25;;;3.72;;
40471;SDS011;26174;42.908;23.800;2022-08-19T11:34:00;4.57;;;3.55;;
40471;SDS011;26174;42.908;23.800;2022-08-19T11:36:28;4.15;;;3.67;;
40471;SDS011;26174;42.908;23.800;2022-08-19T11:38:54;5.88;;;4.13;;
40471;SDS011;26174;42.908;23.800;2022-08-19T11:41:20;10.50;;;3.95;;
40471;SDS011;26174;42.908;23.800;2022-08-19T11:43:48;4.68;;;4.18;;
40471;SDS011;26174;42.908;23.800;2022-08-19T11:46:19;4.57;;;4.18;;
40471;SDS011;26174;42.908;23.800;2022-08-19T11:48:44;4.50;;;4.10;;
40471;SDS011;26174;42.908;23.800;2022-08-19T11:51:14;3.97;;;3.58;;
40471;SDS011;26174;42.908;23.800;2022-08-19T11:53:43;6.20;;;4.13;;
40471;SDS011;26174;42.908;23.800;2022-08-19T11:56:10;5.88;;;4.72;;
40471;SDS011;26174;42.908;23.800;2022-08-19T11:58:37;5.38;;;4.88;;
40471;SDS011;26174;42.908;23.800;2022-08-19T12:01:07;12.07;;;5.97;;
40471;SDS011;26174;42.908;23.800;2022-08-19T12:03:33;12.90;;;4.97;;
40471;SDS011;26174;42.908;23.800;2022-08-19T12:06:02;8.95;;;4.57;;
40471;SDS011;26174;42.908;23.800;2022-08-19T12:10:54;6.03;;;4.57;;
40471;SDS011;26174;42.908;23.800;2022-08-19T12:13:20;4.50;;;3.85;;
40471;SDS011;26174;42.908;23.800;2022-08-19T12:15:46;5.97;;;4.10;;
40471;SDS011;26174;42.908;23.800;2022-08-19T12:18:12;8.38;;;5.53;;
40471;SDS011;26174;42.908;23.800;2022-08-19T12:20:42;5.53;;;4.00;;
40471;SDS011;26174;42.908;23.800;2022-08-19T12:23:08;7.72;;;4.60;;
40471;SDS011;26174;42.908;23.800;2022-08-19T12:25:35;9.10;;;6.25;;
40471;SDS011;26174;42.908;23.800;2022-08-19T12:28:02;4.15;;;3.75;;
40471;SDS011;26174;42.908;23.800;2022-08-19T12:30:28;5.18;;;4.15;;
40471;SDS011;26174;42.908;23.800;2022-08-19T12:32:54;6.70;;;4.32;;
40471;SDS011;26174;42.908;23.800;2022-08-19T12:35:20;4.40;;;4.00;;
40471;SDS011;26174;42.908;23.800;2022-08-19T12:37:47;3.95;;;3.50;;
40471;SDS011;26174;42.908;23.800;2022-08-19T12:40:14;5.07;;;3.92;;
40471;SDS011;26174;42.908;23.800;2022-08-19T12:42:41;4.22;;;3.70;;
40471;SDS011;26174;42.908;23.800;2022-08-19T12:45:10;8.23;;;3.97;;
40471;SDS011;26174;42.908;23.800;2022-08-19T12:47:37;4.60;;;3.95;;
40471;SDS011;26174;42.908;23.800;2022-08-19T12:50:03;7.20;;;4.30;;
40471;SDS011;26174;42.908;23.800;2022-08-19T12:52:33;6.30;;;4.75;;
40471;SDS011;26174;42.908;23.800;2022-08-19T12:55:03;11.20;;;4.10;;
40471;SDS011;26174;42.908;23.800;2022-08-19T12:57:30;5.43;;;4.05;;
40471;SDS011;26174;42.908;23.800;2022-08-19T13:00:00;5.30;;;3.67;;
40471;SDS011;26174;42.908;23.800;2022-08-19T13:02:39;6.88;;;4.43;;
40471;SDS011;26174;42.908;23.800;2022-08-19T13:05:07;5.32;;;3.88;;
40471;SDS011;26174;42.908;23.800;2022-08-19T13:07:34;6.72;;;4.35;;
40471;SDS011;26174;42.908;23.800;2022-08-19T13:10:00;7.20;;;3.90;;
40471;SDS011;26174;42.908;23.800;2022-08-19T13:12:26;6.28;;;3.78;;
40471;SDS011;26174;42.908;23.800;2022-08-19T13:14:52;4.53;;;4.05;;
40471;SDS011;26174;42.908;23.800;2022-08-19T13:17:18;4.93;;;3.80;;
40471;SDS011;26174;42.908;23.800;2022-08-19T13:19:44;8.85;;;4.90;;
40471;SDS011;26174;42.908;23.800;2022-08-19T13:22:10;5.25;;;4.18;;
40471;SDS011;26174;42.908;23.800;2022-08-19T13:24:37;6.25;;;4.97;;
40471;SDS011;26174;42.908;23.800;2022-08-19T13:27:03;7.25;;;4.20;;
40471;SDS011;26174;42.908;23.800;2022-08-19T13:29:28;7.47;;;3.88;;
40471;SDS011;26174;42.908;23.800;2022-08-19T13:32:13;4.00;;;3.58;;
40471;SDS011;26174;42.908;23.800;2022-08-19T13:34:57;4.38;;;3.80;;
40471;SDS011;26174;42.908;23.800;2022-08-19T13:37:22;4.57;;;4.00;;
40471;SDS011;26174;42.908;23.800;2022-08-19T13:40:07;5.15;;;3.40;;
40471;SDS011;26174;42.908;23.800;2022-08-19T13:42:41;4.70;;;3.85;;
40471;SDS011;26174;42.908;23.800;2022-08-19T13:45:07;4.40;;;4.00;;
40471;SDS011;26174;42.908;23.800;2022-08-19T13:47:33;5.32;;;4.05;;
40471;SDS011;26174;42.908;23.800;2022-08-19T13:50:00;8.02;;;4.22;;
40471;SDS011;26174;42.908;23.800;2022-08-19T13:52:27;7.32;;;4.10;;
40471;SDS011;26174;42.908;23.800;2022-08-19T13:54:53;7.57;;;4.00;;
40471;SDS011;26174;42.908;23.800;2022-08-19T13:57:19;5.00;;;3.97;;
40471;SDS011;26174;42.908;23.800;2022-08-19T13:59:44;5.68;;;3.83;;
40471;SDS011;26174;42.908;23.800;2022-08-19T14:02:10;6.40;;;4.25;;
40471;SDS011;26174;42.908;23.800;2022-08-19T14:04:36;5.65;;;4.30;;
40471;SDS011;26174;42.908;23.800;2022-08-19T14:07:02;6.70;;;4.20;;
40471;SDS011;26174;42.908;23.800;2022-08-19T14:09:28;4.95;;;4.07;;
40471;SDS011;26174;42.908;23.800;2022-08-19T14:11:54;7.88;;;4.53;;
40471;SDS011;26174;42.908;23.800;2022-08-19T14:14:20;5.93;;;3.63;;
40471;SDS011;26174;42.908;23.800;2022-08-19T14:16:46;9.95;;;4.18;;
40471;SDS011;26174;42.908;23.800;2022-08-19T14:19:12;4.10;;;3.70;;
40471;SDS011;26174;42.908;23.800;2022-08-19T14:21:38;6.97;;;3.97;;
40471;SDS011;26174;42.908;23.800;2022-08-19T14:24:04;7.53;;;4.70;;
40471;SDS011;26174;42.908;23.800;2022-08-19T14:26:30;5.18;;;4.35;;
40471;SDS011;26174;42.908;23.800;2022-08-19T14:28:55;8.20;;;4.30;;
40471;SDS011;26174;42.908;23.800;2022-08-19T14:31:22;5.95;;;4.30;;
40471;SDS011;26174;42.908;23.800;2022-08-19T14:33:49;5.88;;;4.18;;
40471;SDS011;26174;42.908;23.800;2022-08-19T14:36:16;7.38;;;4.50;;
40471;SDS011;26174;42.908;23.800;2022-08-19T14:38:42;5.30;;;4.05;;
40471;SDS011;26174;42.908;23.800;2022-08-19T14:43:43;10.50;;;4.25;;
40471;SDS011;26174;42.908;23.800;2022-08-19T14:46:16;6.78;;;4.07;;
40471;SDS011;26174;42.908;23.800;2022-08-19T14:48:45;6.82;;;4.80;;
40471;SDS011;26174;42.908;23.800;2022-08-19T14:51:11;7.45;;;4.72;;
40471;SDS011;26174;42.908;23.800;2022-08-19T14:53:37;6.72;;;4.60;;
40471;SDS011;26174;42.908;23.800;2022-08-19T14:56:07;5.38;;;4.40;;
40471;SDS011;26174;42.908;23.800;2022-08-19T14:58:34;8.38;;;4.97;;
40471;SDS011;26174;42.908;23.800;2022-08-19T15:01:00;9.02;;;5.25;;